KLND/LND METAR and TAF weather

Enter ICAO airport designator
Station Type Date Time Source
KLND METAR 2019/08/20 09:53 UTC NOAA

KLND 200953Z AUTO 26010KT 10SM CLR 20/M03 A3014 RMK AO2 SLP123 T02001033


Station Type Date Time Source
KLND Decoded METAR 2019/08/20 09:53 UTC NOAA

LANDER HUNT FIELD, WY, United States (KLND) 42-49N 108-44W 1694M
Aug 20, 2019 - 05:53 AM EDT / 2019.08.20 0953 UTC
Wind: from the W (260 degrees) at 12 MPH (10 KT):0
Visibility: 10 mile(s):0
Sky conditions: clear
Temperature: 68.0 F (20.0 C)
Dew Point: 26.1 F (-3.3 C)
Relative Humidity: 20%
Pressure (altimeter): 30.14 in. Hg (1020 hPa)
ob: KLND 200953Z AUTO 26010KT 10SM CLR 20/M03 A3014 RMK AO2 SLP123 T02001033
cycle: 10

Station Type Date Time Source
KLND TAF 2019/08/20 06:36 UTC NOAA

TAF KLND 200535Z 2006/2106 23010KT P6SM FEW140
FM200700 VRB06KT P6SM SKC
FM201900 09007KT P6SM SKC
FM210200 25010KT P6SM SKC

Example: see airport list